sensor_id;sensor_type;location;lat;lon;timestamp;P1;durP1;ratioP1;P2;durP2;ratioP2
5171;SDS011;2605;49.770;9.868;2022-12-07T00:01:22;16.40;;;10.30;;
5171;SDS011;2605;49.770;9.868;2022-12-07T00:03:51;7.63;;;6.87;;
5171;SDS011;2605;49.770;9.868;2022-12-07T00:06:18;13.57;;;9.50;;
5171;SDS011;2605;49.770;9.868;2022-12-07T00:08:44;12.43;;;9.03;;
5171;SDS011;2605;49.770;9.868;2022-12-07T00:11:14;16.53;;;12.13;;
5171;SDS011;2605;49.770;9.868;2022-12-07T00:13:42;19.63;;;12.20;;
5171;SDS011;2605;49.770;9.868;2022-12-07T00:16:09;11.27;;;7.50;;
5171;SDS011;2605;49.770;9.868;2022-12-07T00:18:45;10.90;;;8.80;;
5171;SDS011;2605;49.770;9.868;2022-12-07T00:21:18;15.97;;;11.20;;
5171;SDS011;2605;49.770;9.868;2022-12-07T00:23:46;16.67;;;10.37;;
5171;SDS011;2605;49.770;9.868;2022-12-07T00:26:15;16.97;;;11.57;;
5171;SDS011;2605;49.770;9.868;2022-12-07T00:28:52;17.13;;;10.80;;
5171;SDS011;2605;49.770;9.868;2022-12-07T00:31:21;13.63;;;10.17;;
5171;SDS011;2605;49.770;9.868;2022-12-07T00:33:48;14.93;;;10.20;;
5171;SDS011;2605;49.770;9.868;2022-12-07T00:36:15;19.40;;;12.90;;
5171;SDS011;2605;49.770;9.868;2022-12-07T00:38:42;10.57;;;8.60;;
5171;SDS011;2605;49.770;9.868;2022-12-07T00:41:12;17.93;;;14.00;;
5171;SDS011;2605;49.770;9.868;2022-12-07T00:43:40;15.60;;;11.63;;
5171;SDS011;2605;49.770;9.868;2022-12-07T00:46:07;16.70;;;11.90;;
5171;SDS011;2605;49.770;9.868;2022-12-07T00:48:32;15.60;;;12.90;;
5171;SDS011;2605;49.770;9.868;2022-12-07T00:50:58;21.30;;;13.40;;
5171;SDS011;2605;49.770;9.868;2022-12-07T00:53:24;17.10;;;12.40;;
5171;SDS011;2605;49.770;9.868;2022-12-07T00:55:50;18.17;;;13.20;;
5171;SDS011;2605;49.770;9.868;2022-12-07T00:58:17;19.97;;;14.27;;
5171;SDS011;2605;49.770;9.868;2022-12-07T01:00:43;14.20;;;12.23;;
5171;SDS011;2605;49.770;9.868;2022-12-07T01:03:10;17.43;;;13.50;;
5171;SDS011;2605;49.770;9.868;2022-12-07T01:05:39;16.30;;;13.67;;
5171;SDS011;2605;49.770;9.868;2022-12-07T01:08:13;19.03;;;13.60;;
5171;SDS011;2605;49.770;9.868;2022-12-07T01:10:38;14.13;;;11.50;;
5171;SDS011;2605;49.770;9.868;2022-12-07T01:13:04;13.70;;;10.80;;
5171;SDS011;2605;49.770;9.868;2022-12-07T01:15:29;13.77;;;11.53;;
5171;SDS011;2605;49.770;9.868;2022-12-07T01:17:55;15.93;;;10.40;;
5171;SDS011;2605;49.770;9.868;2022-12-07T01:20:20;16.13;;;11.30;;
5171;SDS011;2605;49.770;9.868;2022-12-07T01:22:46;17.03;;;12.07;;
5171;SDS011;2605;49.770;9.868;2022-12-07T01:25:12;15.50;;;10.77;;
5171;SDS011;2605;49.770;9.868;2022-12-07T01:27:37;14.10;;;10.53;;
5171;SDS011;2605;49.770;9.868;2022-12-07T01:30:04;15.63;;;11.80;;
5171;SDS011;2605;49.770;9.868;2022-12-07T01:32:30;15.90;;;12.87;;
5171;SDS011;2605;49.770;9.868;2022-12-07T01:34:57;15.20;;;11.73;;
5171;SDS011;2605;49.770;9.868;2022-12-07T01:37:22;22.13;;;11.87;;
5171;SDS011;2605;49.770;9.868;2022-12-07T01:39:48;11.33;;;8.70;;
5171;SDS011;2605;49.770;9.868;2022-12-07T01:42:15;11.00;;;8.27;;
5171;SDS011;2605;49.770;9.868;2022-12-07T01:48:01;11.87;;;8.67;;
5171;SDS011;2605;49.770;9.868;2022-12-07T01:50:27;14.73;;;10.67;;
5171;SDS011;2605;49.770;9.868;2022-12-07T01:52:56;12.90;;;10.80;;
5171;SDS011;2605;49.770;9.868;2022-12-07T01:55:23;14.27;;;10.97;;
5171;SDS011;2605;49.770;9.868;2022-12-07T01:57:50;17.17;;;10.50;;
5171;SDS011;2605;49.770;9.868;2022-12-07T02:00:19;15.70;;;11.00;;
5171;SDS011;2605;49.770;9.868;2022-12-07T02:05:19;12.80;;;10.30;;
5171;SDS011;2605;49.770;9.868;2022-12-07T02:07:45;15.00;;;9.53;;
5171;SDS011;2605;49.770;9.868;2022-12-07T02:12:41;13.30;;;9.23;;
5171;SDS011;2605;49.770;9.868;2022-12-07T02:15:09;18.33;;;12.73;;
5171;SDS011;2605;49.770;9.868;2022-12-07T02:17:42;17.00;;;12.23;;
5171;SDS011;2605;49.770;9.868;2022-12-07T02:20:21;13.77;;;10.27;;
5171;SDS011;2605;49.770;9.868;2022-12-07T02:23:25;16.83;;;12.60;;
5171;SDS011;2605;49.770;9.868;2022-12-07T02:29:10;19.77;;;14.50;;
5171;SDS011;2605;49.770;9.868;2022-12-07T02:37:10;20.07;;;12.70;;
5171;SDS011;2605;49.770;9.868;2022-12-07T02:39:44;14.97;;;9.33;;
5171;SDS011;2605;49.770;9.868;2022-12-07T02:42:27;18.60;;;10.03;;
5171;SDS011;2605;49.770;9.868;2022-12-07T02:45:03;16.10;;;11.87;;
5171;SDS011;2605;49.770;9.868;2022-12-07T02:47:31;18.03;;;12.70;;
5171;SDS011;2605;49.770;9.868;2022-12-07T02:49:59;21.43;;;10.93;;
5171;SDS011;2605;49.770;9.868;2022-12-07T02:52:24;17.90;;;12.30;;
5171;SDS011;2605;49.770;9.868;2022-12-07T02:54:50;19.43;;;12.93;;
5171;SDS011;2605;49.770;9.868;2022-12-07T03:00:11;15.03;;;11.20;;
5171;SDS011;2605;49.770;9.868;2022-12-07T03:15:59;15.50;;;10.70;;
5171;SDS011;2605;49.770;9.868;2022-12-07T03:18:44;26.00;;;14.37;;
5171;SDS011;2605;49.770;9.868;2022-12-07T03:21:14;14.73;;;10.20;;
5171;SDS011;2605;49.770;9.868;2022-12-07T03:23:43;18.67;;;12.40;;
5171;SDS011;2605;49.770;9.868;2022-12-07T03:26:13;17.40;;;12.23;;
5171;SDS011;2605;49.770;9.868;2022-12-07T03:28:42;20.07;;;13.40;;
5171;SDS011;2605;49.770;9.868;2022-12-07T03:31:23;10.03;;;8.33;;
5171;SDS011;2605;49.770;9.868;2022-12-07T03:33:58;17.40;;;11.73;;
5171;SDS011;2605;49.770;9.868;2022-12-07T03:36:47;17.30;;;11.37;;
5171;SDS011;2605;49.770;9.868;2022-12-07T03:39:33;16.20;;;12.37;;
5171;SDS011;2605;49.770;9.868;2022-12-07T03:42:04;19.37;;;11.93;;
5171;SDS011;2605;49.770;9.868;2022-12-07T03:44:32;17.00;;;12.30;;
5171;SDS011;2605;49.770;9.868;2022-12-07T03:52:03;15.87;;;10.10;;
5171;SDS011;2605;49.770;9.868;2022-12-07T03:57:08;17.77;;;11.43;;
5171;SDS011;2605;49.770;9.868;2022-12-07T03:59:35;17.00;;;12.00;;
5171;SDS011;2605;49.770;9.868;2022-12-07T04:02:04;18.53;;;13.10;;
5171;SDS011;2605;49.770;9.868;2022-12-07T04:04:31;17.83;;;12.17;;
5171;SDS011;2605;49.770;9.868;2022-12-07T04:06:58;21.20;;;13.40;;
5171;SDS011;2605;49.770;9.868;2022-12-07T04:09:23;16.73;;;11.77;;
5171;SDS011;2605;49.770;9.868;2022-12-07T04:11:49;16.37;;;12.03;;
5171;SDS011;2605;49.770;9.868;2022-12-07T04:14:15;14.30;;;10.83;;
5171;SDS011;2605;49.770;9.868;2022-12-07T04:16:50;12.83;;;8.27;;
5171;SDS011;2605;49.770;9.868;2022-12-07T04:19:19;15.80;;;11.50;;
5171;SDS011;2605;49.770;9.868;2022-12-07T04:21:45;17.47;;;11.40;;
5171;SDS011;2605;49.770;9.868;2022-12-07T04:24:11;17.20;;;11.63;;
5171;SDS011;2605;49.770;9.868;2022-12-07T04:26:38;16.80;;;11.93;;
5171;SDS011;2605;49.770;9.868;2022-12-07T04:29:04;18.43;;;11.50;;
5171;SDS011;2605;49.770;9.868;2022-12-07T04:31:29;16.07;;;11.23;;
5171;SDS011;2605;49.770;9.868;2022-12-07T04:33:55;14.13;;;10.70;;
5171;SDS011;2605;49.770;9.868;2022-12-07T04:36:21;14.80;;;9.27;;
5171;SDS011;2605;49.770;9.868;2022-12-07T04:38:46;15.93;;;11.40;;
5171;SDS011;2605;49.770;9.868;2022-12-07T04:41:12;15.90;;;11.53;;
5171;SDS011;2605;49.770;9.868;2022-12-07T04:43:38;17.90;;;11.23;;
5171;SDS011;2605;49.770;9.868;2022-12-07T04:46:03;12.87;;;9.73;;
5171;SDS011;2605;49.770;9.868;2022-12-07T04:48:29;15.30;;;11.20;;
5171;SDS011;2605;49.770;9.868;2022-12-07T04:50:55;22.47;;;12.10;;
5171;SDS011;2605;49.770;9.868;2022-12-07T04:53:21;16.33;;;11.20;;
5171;SDS011;2605;49.770;9.868;2022-12-07T04:55:46;18.90;;;13.20;;
5171;SDS011;2605;49.770;9.868;2022-12-07T04:58:12;16.00;;;9.70;;
5171;SDS011;2605;49.770;9.868;2022-12-07T05:00:38;25.07;;;13.20;;
5171;SDS011;2605;49.770;9.868;2022-12-07T05:03:04;17.00;;;12.13;;
5171;SDS011;2605;49.770;9.868;2022-12-07T05:05:30;12.77;;;9.83;;
5171;SDS011;2605;49.770;9.868;2022-12-07T05:07:56;17.40;;;12.53;;
5171;SDS011;2605;49.770;9.868;2022-12-07T05:10:21;19.43;;;12.13;;
5171;SDS011;2605;49.770;9.868;2022-12-07T05:12:47;19.40;;;12.03;;
5171;SDS011;2605;49.770;9.868;2022-12-07T05:15:13;17.83;;;12.03;;
5171;SDS011;2605;49.770;9.868;2022-12-07T05:17:39;15.90;;;10.57;;
5171;SDS011;2605;49.770;9.868;2022-12-07T05:20:05;15.40;;;9.27;;
5171;SDS011;2605;49.770;9.868;2022-12-07T05:22:31;19.93;;;12.40;;
5171;SDS011;2605;49.770;9.868;2022-12-07T05:24:56;19.03;;;12.63;;
5171;SDS011;2605;49.770;9.868;2022-12-07T05:27:22;13.40;;;10.60;;
5171;SDS011;2605;49.770;9.868;2022-12-07T05:29:49;15.10;;;9.33;;
5171;SDS011;2605;49.770;9.868;2022-12-07T05:32:15;18.53;;;12.50;;
5171;SDS011;2605;49.770;9.868;2022-12-07T05:34:40;22.60;;;13.70;;
5171;SDS011;2605;49.770;9.868;2022-12-07T05:37:06;20.00;;;13.40;;
5171;SDS011;2605;49.770;9.868;2022-12-07T05:39:31;22.00;;;12.97;;
5171;SDS011;2605;49.770;9.868;2022-12-07T05:41:57;17.97;;;11.77;;
5171;SDS011;2605;49.770;9.868;2022-12-07T05:44:38;18.80;;;13.17;;
5171;SDS011;2605;49.770;9.868;2022-12-07T05:47:04;14.03;;;9.60;;
5171;SDS011;2605;49.770;9.868;2022-12-07T05:49:30;21.53;;;14.97;;
5171;SDS011;2605;49.770;9.868;2022-12-07T05:51:55;21.33;;;14.93;;
5171;SDS011;2605;49.770;9.868;2022-12-07T05:54:21;18.50;;;12.07;;
5171;SDS011;2605;49.770;9.868;2022-12-07T05:56:47;15.87;;;12.07;;
5171;SDS011;2605;49.770;9.868;2022-12-07T05:59:12;18.07;;;12.00;;
5171;SDS011;2605;49.770;9.868;2022-12-07T06:02:02;18.13;;;11.43;;
5171;SDS011;2605;49.770;9.868;2022-12-07T06:04:31;19.43;;;12.10;;
5171;SDS011;2605;49.770;9.868;2022-12-07T06:06:59;22.27;;;13.50;;
5171;SDS011;2605;49.770;9.868;2022-12-07T06:09:25;18.17;;;11.17;;
5171;SDS011;2605;49.770;9.868;2022-12-07T06:11:52;19.77;;;13.67;;
5171;SDS011;2605;49.770;9.868;2022-12-07T06:14:37;19.13;;;13.13;;
5171;SDS011;2605;49.770;9.868;2022-12-07T06:17:02;22.47;;;14.00;;
5171;SDS011;2605;49.770;9.868;2022-12-07T06:19:28;18.27;;;11.53;;
5171;SDS011;2605;49.770;9.868;2022-12-07T06:21:54;16.77;;;12.00;;
5171;SDS011;2605;49.770;9.868;2022-12-07T06:24:20;17.93;;;12.40;;
5171;SDS011;2605;49.770;9.868;2022-12-07T06:26:46;16.20;;;11.40;;
5171;SDS011;2605;49.770;9.868;2022-12-07T06:29:12;15.57;;;11.80;;
5171;SDS011;2605;49.770;9.868;2022-12-07T06:31:38;17.33;;;12.70;;
5171;SDS011;2605;49.770;9.868;2022-12-07T06:34:05;17.10;;;10.97;;
5171;SDS011;2605;49.770;9.868;2022-12-07T06:36:33;17.27;;;11.67;;
5171;SDS011;2605;49.770;9.868;2022-12-07T06:38:59;15.90;;;11.73;;
5171;SDS011;2605;49.770;9.868;2022-12-07T06:41:24;12.50;;;10.50;;
5171;SDS011;2605;49.770;9.868;2022-12-07T06:43:50;14.23;;;9.60;;
5171;SDS011;2605;49.770;9.868;2022-12-07T06:46:16;14.33;;;10.70;;
5171;SDS011;2605;49.770;9.868;2022-12-07T06:48:42;13.77;;;9.40;;
5171;SDS011;2605;49.770;9.868;2022-12-07T06:51:08;15.40;;;11.13;;
5171;SDS011;2605;49.770;9.868;2022-12-07T06:53:34;15.50;;;11.47;;
5171;SDS011;2605;49.770;9.868;2022-12-07T06:56:01;16.57;;;11.77;;
5171;SDS011;2605;49.770;9.868;2022-12-07T06:58:27;19.30;;;14.07;;
5171;SDS011;2605;49.770;9.868;2022-12-07T07:00:52;14.03;;;10.00;;
5171;SDS011;2605;49.770;9.868;2022-12-07T07:03:18;18.80;;;11.03;;
5171;SDS011;2605;49.770;9.868;2022-12-07T07:05:44;13.63;;;11.20;;
5171;SDS011;2605;49.770;9.868;2022-12-07T07:08:10;15.23;;;8.50;;
5171;SDS011;2605;49.770;9.868;2022-12-07T07:10:36;16.20;;;12.03;;
5171;SDS011;2605;49.770;9.868;2022-12-07T07:13:02;16.00;;;10.13;;
5171;SDS011;2605;49.770;9.868;2022-12-07T07:15:29;18.53;;;11.50;;
5171;SDS011;2605;49.770;9.868;2022-12-07T07:17:54;14.27;;;10.80;;
5171;SDS011;2605;49.770;9.868;2022-12-07T07:20:20;14.77;;;9.70;;
5171;SDS011;2605;49.770;9.868;2022-12-07T07:22:46;15.90;;;12.73;;
5171;SDS011;2605;49.770;9.868;2022-12-07T07:25:11;16.60;;;11.53;;
5171;SDS011;2605;49.770;9.868;2022-12-07T07:27:37;14.63;;;11.80;;
5171;SDS011;2605;49.770;9.868;2022-12-07T07:30:02;14.13;;;10.73;;
5171;SDS011;2605;49.770;9.868;2022-12-07T07:32:29;11.93;;;7.60;;
5171;SDS011;2605;49.770;9.868;2022-12-07T07:34:54;15.40;;;12.80;;
5171;SDS011;2605;49.770;9.868;2022-12-07T07:37:20;17.83;;;13.10;;
5171;SDS011;2605;49.770;9.868;2022-12-07T07:39:45;19.33;;;13.50;;
5171;SDS011;2605;49.770;9.868;2022-12-07T07:42:11;22.03;;;13.37;;
5171;SDS011;2605;49.770;9.868;2022-12-07T07:44:37;15.17;;;11.33;;
5171;SDS011;2605;49.770;9.868;2022-12-07T07:47:02;14.10;;;9.30;;
5171;SDS011;2605;49.770;9.868;2022-12-07T07:49:28;13.53;;;9.13;;
5171;SDS011;2605;49.770;9.868;2022-12-07T07:51:54;14.17;;;11.00;;
5171;SDS011;2605;49.770;9.868;2022-12-07T07:54:19;15.80;;;11.60;;
5171;SDS011;2605;49.770;9.868;2022-12-07T07:56:45;13.37;;;8.27;;
5171;SDS011;2605;49.770;9.868;2022-12-07T07:59:10;15.13;;;11.37;;
5171;SDS011;2605;49.770;9.868;2022-12-07T08:01:35;17.00;;;10.80;;
5171;SDS011;2605;49.770;9.868;2022-12-07T08:04:01;9.60;;;7.43;;
5171;SDS011;2605;49.770;9.868;2022-12-07T08:06:27;15.10;;;11.77;;
5171;SDS011;2605;49.770;9.868;2022-12-07T08:08:52;21.27;;;11.33;;
5171;SDS011;2605;49.770;9.868;2022-12-07T08:11:18;15.10;;;11.23;;
5171;SDS011;2605;49.770;9.868;2022-12-07T08:13:46;15.10;;;9.97;;
5171;SDS011;2605;49.770;9.868;2022-12-07T08:16:12;16.90;;;10.90;;
5171;SDS011;2605;49.770;9.868;2022-12-07T08:18:39;17.02;;;11.27;;
5171;SDS011;2605;49.770;9.868;2022-12-07T08:21:06;13.93;;;10.73;;
5171;SDS011;2605;49.770;9.868;2022-12-07T08:23:32;11.47;;;9.67;;
5171;SDS011;2605;49.770;9.868;2022-12-07T08:26:02;8.93;;;6.97;;
5171;SDS011;2605;49.770;9.868;2022-12-07T08:28:29;10.17;;;7.03;;
5171;SDS011;2605;49.770;9.868;2022-12-07T08:31:02;7.90;;;6.57;;
5171;SDS011;2605;49.770;9.868;2022-12-07T08:33:30;15.20;;;9.60;;
5171;SDS011;2605;49.770;9.868;2022-12-07T08:36:00;12.03;;;8.30;;
5171;SDS011;2605;49.770;9.868;2022-12-07T08:38:36;15.70;;;11.87;;
5171;SDS011;2605;49.770;9.868;2022-12-07T08:41:02;13.60;;;10.70;;
5171;SDS011;2605;49.770;9.868;2022-12-07T08:43:28;11.37;;;9.20;;
5171;SDS011;2605;49.770;9.868;2022-12-07T08:48:32;14.53;;;10.47;;
5171;SDS011;2605;49.770;9.868;2022-12-07T08:51:00;11.73;;;10.00;;
5171;SDS011;2605;49.770;9.868;2022-12-07T08:53:27;13.10;;;9.40;;
5171;SDS011;2605;49.770;9.868;2022-12-07T08:55:53;14.40;;;10.20;;
5171;SDS011;2605;49.770;9.868;2022-12-07T08:58:20;15.50;;;11.10;;
5171;SDS011;2605;49.770;9.868;2022-12-07T09:00:46;13.30;;;11.07;;
5171;SDS011;2605;49.770;9.868;2022-12-07T09:03:11;12.40;;;10.60;;
5171;SDS011;2605;49.770;9.868;2022-12-07T09:05:37;17.47;;;10.83;;
5171;SDS011;2605;49.770;9.868;2022-12-07T09:08:02;14.00;;;11.00;;
5171;SDS011;2605;49.770;9.868;2022-12-07T09:10:28;13.77;;;9.93;;
5171;SDS011;2605;49.770;9.868;2022-12-07T09:12:54;12.75;;;9.60;;
5171;SDS011;2605;49.770;9.868;2022-12-07T09:15:20;12.33;;;8.33;;
5171;SDS011;2605;49.770;9.868;2022-12-07T09:17:45;16.93;;;7.87;;
5171;SDS011;2605;49.770;9.868;2022-12-07T09:20:11;8.97;;;8.00;;
5171;SDS011;2605;49.770;9.868;2022-12-07T09:22:37;11.20;;;7.60;;
5171;SDS011;2605;49.770;9.868;2022-12-07T09:25:03;8.97;;;7.80;;
5171;SDS011;2605;49.770;9.868;2022-12-07T09:27:29;7.47;;;6.70;;
5171;SDS011;2605;49.770;9.868;2022-12-07T09:29:55;10.43;;;9.20;;
5171;SDS011;2605;49.770;9.868;2022-12-07T09:32:21;12.87;;;9.60;;
5171;SDS011;2605;49.770;9.868;2022-12-07T09:34:47;10.33;;;8.23;;
5171;SDS011;2605;49.770;9.868;2022-12-07T09:37:13;11.17;;;7.80;;
5171;SDS011;2605;49.770;9.868;2022-12-07T09:39:39;12.37;;;9.50;;
5171;SDS011;2605;49.770;9.868;2022-12-07T09:42:05;9.10;;;7.00;;
5171;SDS011;2605;49.770;9.868;2022-12-07T09:44:32;9.50;;;8.47;;
5171;SDS011;2605;49.770;9.868;2022-12-07T09:46:59;10.13;;;8.27;;
5171;SDS011;2605;49.770;9.868;2022-12-07T09:49:27;9.20;;;7.97;;
5171;SDS011;2605;49.770;9.868;2022-12-07T09:54:35;16.43;;;9.97;;
5171;SDS011;2605;49.770;9.868;2022-12-07T09:57:03;13.97;;;9.23;;
5171;SDS011;2605;49.770;9.868;2022-12-07T09:59:28;10.60;;;8.97;;
5171;SDS011;2605;49.770;9.868;2022-12-07T10:01:54;12.63;;;8.97;;
5171;SDS011;2605;49.770;9.868;2022-12-07T10:04:24;10.53;;;8.83;;
5171;SDS011;2605;49.770;9.868;2022-12-07T10:06:51;7.23;;;6.50;;
5171;SDS011;2605;49.770;9.868;2022-12-07T10:09:17;12.10;;;7.63;;
5171;SDS011;2605;49.770;9.868;2022-12-07T10:12:01;12.67;;;8.03;;
5171;SDS011;2605;49.770;9.868;2022-12-07T10:14:29;6.60;;;5.90;;
5171;SDS011;2605;49.770;9.868;2022-12-07T10:16:57;8.77;;;7.90;;
5171;SDS011;2605;49.770;9.868;2022-12-07T10:19:30;7.57;;;6.10;;
5171;SDS011;2605;49.770;9.868;2022-12-07T10:22:07;7.37;;;6.10;;
5171;SDS011;2605;49.770;9.868;2022-12-07T10:24:38;10.67;;;7.47;;
5171;SDS011;2605;49.770;9.868;2022-12-07T10:27:17;7.27;;;6.37;;
5171;SDS011;2605;49.770;9.868;2022-12-07T10:29:46;9.57;;;8.57;;
5171;SDS011;2605;49.770;9.868;2022-12-07T10:34:39;10.83;;;8.67;;
5171;SDS011;2605;49.770;9.868;2022-12-07T10:39:44;9.17;;;8.20;;
5171;SDS011;2605;49.770;9.868;2022-12-07T10:42:17;11.30;;;9.33;;
5171;SDS011;2605;49.770;9.868;2022-12-07T10:44:50;9.03;;;7.70;;
5171;SDS011;2605;49.770;9.868;2022-12-07T10:53:17;8.53;;;6.57;;
5171;SDS011;2605;49.770;9.868;2022-12-07T11:04:07;8.20;;;6.43;;
5171;SDS011;2605;49.770;9.868;2022-12-07T11:12:41;8.73;;;7.70;;
5171;SDS011;2605;49.770;9.868;2022-12-07T11:14:53;8.77;;;7.03;;
5171;SDS011;2605;49.770;9.868;2022-12-07T11:17:30;8.13;;;7.20;;
5171;SDS011;2605;49.770;9.868;2022-12-07T11:20:24;7.30;;;6.30;;
5171;SDS011;2605;49.770;9.868;2022-12-07T11:22:57;10.40;;;6.47;;
5171;SDS011;2605;49.770;9.868;2022-12-07T11:26:03;11.00;;;6.90;;
5171;SDS011;2605;49.770;9.868;2022-12-07T11:39:22;10.20;;;5.37;;
5171;SDS011;2605;49.770;9.868;2022-12-07T11:42:13;8.00;;;7.20;;
5171;SDS011;2605;49.770;9.868;2022-12-07T11:44:55;6.27;;;4.30;;
5171;SDS011;2605;49.770;9.868;2022-12-07T11:47:35;5.07;;;4.40;;
5171;SDS011;2605;49.770;9.868;2022-12-07T11:53:01;7.63;;;6.80;;
5171;SDS011;2605;49.770;9.868;2022-12-07T11:55:49;8.50;;;5.80;;
5171;SDS011;2605;49.770;9.868;2022-12-07T11:58:37;7.50;;;6.83;;
5171;SDS011;2605;49.770;9.868;2022-12-07T12:01:24;6.93;;;6.23;;
5171;SDS011;2605;49.770;9.868;2022-12-07T12:06:35;10.23;;;8.50;;
5171;SDS011;2605;49.770;9.868;2022-12-07T12:09:18;7.90;;;7.13;;
5171;SDS011;2605;49.770;9.868;2022-12-07T12:17:52;7.10;;;6.40;;
5171;SDS011;2605;49.770;9.868;2022-12-07T12:20:41;7.83;;;6.93;;
5171;SDS011;2605;49.770;9.868;2022-12-07T12:26:03;9.40;;;6.87;;
5171;SDS011;2605;49.770;9.868;2022-12-07T12:31:31;8.13;;;7.30;;
5171;SDS011;2605;49.770;9.868;2022-12-07T12:34:29;5.60;;;5.10;;
5171;SDS011;2605;49.770;9.868;2022-12-07T12:42:57;6.83;;;5.63;;
5171;SDS011;2605;49.770;9.868;2022-12-07T12:45:23;7.60;;;5.40;;
5171;SDS011;2605;49.770;9.868;2022-12-07T12:48:03;9.63;;;4.23;;
5171;SDS011;2605;49.770;9.868;2022-12-07T12:50:49;6.30;;;5.70;;
5171;SDS011;2605;49.770;9.868;2022-12-07T12:53:53;4.57;;;4.10;;
5171;SDS011;2605;49.770;9.868;2022-12-07T12:56:42;9.47;;;6.23;;
5171;SDS011;2605;49.770;9.868;2022-12-07T12:59:28;8.60;;;5.83;;
5171;SDS011;2605;49.770;9.868;2022-12-07T13:01:56;8.03;;;6.03;;
5171;SDS011;2605;49.770;9.868;2022-12-07T13:04:49;11.70;;;5.20;;
5171;SDS011;2605;49.770;9.868;2022-12-07T13:10:47;9.57;;;5.43;;
5171;SDS011;2605;49.770;9.868;2022-12-07T13:15:38;7.23;;;6.50;;
5171;SDS011;2605;49.770;9.868;2022-12-07T13:20:55;10.13;;;9.10;;
5171;SDS011;2605;49.770;9.868;2022-12-07T13:23:37;10.90;;;9.23;;
5171;SDS011;2605;49.770;9.868;2022-12-07T13:26:17;9.20;;;7.40;;
5171;SDS011;2605;49.770;9.868;2022-12-07T13:29:11;9.30;;;6.90;;
5171;SDS011;2605;49.770;9.868;2022-12-07T13:31:48;11.03;;;6.67;;
5171;SDS011;2605;49.770;9.868;2022-12-07T13:39:32;9.53;;;6.90;;
5171;SDS011;2605;49.770;9.868;2022-12-07T13:42:06;7.90;;;5.97;;
5171;SDS011;2605;49.770;9.868;2022-12-07T13:44:40;7.53;;;6.20;;
5171;SDS011;2605;49.770;9.868;2022-12-07T13:47:09;7.17;;;6.47;;
5171;SDS011;2605;49.770;9.868;2022-12-07T13:49:49;7.10;;;6.33;;
5171;SDS011;2605;49.770;9.868;2022-12-07T13:52:17;7.30;;;6.57;;
5171;SDS011;2605;49.770;9.868;2022-12-07T13:55:00;8.63;;;5.83;;
5171;SDS011;2605;49.770;9.868;2022-12-07T13:57:39;7.63;;;6.67;;
5171;SDS011;2605;49.770;9.868;2022-12-07T14:00:13;10.77;;;7.50;;
5171;SDS011;2605;49.770;9.868;2022-12-07T14:02:57;8.63;;;7.70;;
5171;SDS011;2605;49.770;9.868;2022-12-07T14:07:59;7.67;;;6.87;;
5171;SDS011;2605;49.770;9.868;2022-12-07T14:10:36;11.53;;;8.97;;
5171;SDS011;2605;49.770;9.868;2022-12-07T14:13:34;8.80;;;6.60;;
5171;SDS011;2605;49.770;9.868;2022-12-07T14:16:05;12.03;;;8.53;;
5171;SDS011;2605;49.770;9.868;2022-12-07T14:18:50;12.77;;;8.70;;
5171;SDS011;2605;49.770;9.868;2022-12-07T14:21:17;12.73;;;8.50;;
5171;SDS011;2605;49.770;9.868;2022-12-07T14:23:44;9.67;;;7.90;;
5171;SDS011;2605;49.770;9.868;2022-12-07T14:26:14;11.83;;;7.27;;
5171;SDS011;2605;49.770;9.868;2022-12-07T14:28:43;5.80;;;5.23;;
5171;SDS011;2605;49.770;9.868;2022-12-07T14:31:20;7.77;;;7.07;;
5171;SDS011;2605;49.770;9.868;2022-12-07T14:33:49;9.90;;;7.40;;
5171;SDS011;2605;49.770;9.868;2022-12-07T14:36:14;9.17;;;7.50;;
5171;SDS011;2605;49.770;9.868;2022-12-07T14:38:40;10.20;;;8.93;;
5171;SDS011;2605;49.770;9.868;2022-12-07T14:41:10;11.93;;;9.13;;
5171;SDS011;2605;49.770;9.868;2022-12-07T14:43:57;11.63;;;9.03;;
5171;SDS011;2605;49.770;9.868;2022-12-07T14:46:23;11.07;;;8.23;;
5171;SDS011;2605;49.770;9.868;2022-12-07T14:48:49;7.40;;;6.43;;
5171;SDS011;2605;49.770;9.868;2022-12-07T14:51:15;12.00;;;9.50;;
5171;SDS011;2605;49.770;9.868;2022-12-07T14:53:42;13.43;;;9.47;;
5171;SDS011;2605;49.770;9.868;2022-12-07T14:56:12;11.07;;;8.80;;
5171;SDS011;2605;49.770;9.868;2022-12-07T14:58:38;12.37;;;7.90;;
5171;SDS011;2605;49.770;9.868;2022-12-07T15:01:04;12.90;;;9.53;;
5171;SDS011;2605;49.770;9.868;2022-12-07T15:03:30;10.37;;;8.87;;
5171;SDS011;2605;49.770;9.868;2022-12-07T15:05:59;11.07;;;9.00;;
5171;SDS011;2605;49.770;9.868;2022-12-07T15:08:25;12.93;;;8.20;;
5171;SDS011;2605;49.770;9.868;2022-12-07T15:10:51;8.83;;;6.20;;
5171;SDS011;2605;49.770;9.868;2022-12-07T15:13:17;9.07;;;7.83;;
5171;SDS011;2605;49.770;9.868;2022-12-07T15:16:01;9.43;;;8.33;;
5171;SDS011;2605;49.770;9.868;2022-12-07T15:18:26;9.27;;;8.13;;
5171;SDS011;2605;49.770;9.868;2022-12-07T15:20:52;11.63;;;7.90;;
5171;SDS011;2605;49.770;9.868;2022-12-07T15:23:18;10.73;;;9.57;;
5171;SDS011;2605;49.770;9.868;2022-12-07T15:25:44;10.53;;;9.50;;
5171;SDS011;2605;49.770;9.868;2022-12-07T15:28:11;10.83;;;9.43;;
5171;SDS011;2605;49.770;9.868;2022-12-07T15:30:37;7.80;;;7.00;;
5171;SDS011;2605;49.770;9.868;2022-12-07T15:33:03;10.30;;;8.43;;
5171;SDS011;2605;49.770;9.868;2022-12-07T15:35:29;12.27;;;8.40;;
5171;SDS011;2605;49.770;9.868;2022-12-07T15:37:54;15.73;;;9.50;;
5171;SDS011;2605;49.770;9.868;2022-12-07T15:40:20;14.20;;;10.00;;
5171;SDS011;2605;49.770;9.868;2022-12-07T15:42:45;9.53;;;7.00;;
5171;SDS011;2605;49.770;9.868;2022-12-07T15:45:11;11.17;;;7.60;;
5171;SDS011;2605;49.770;9.868;2022-12-07T15:47:39;7.80;;;7.00;;
5171;SDS011;2605;49.770;9.868;2022-12-07T15:50:07;10.27;;;9.00;;
5171;SDS011;2605;49.770;9.868;2022-12-07T15:52:35;11.13;;;9.03;;
5171;SDS011;2605;49.770;9.868;2022-12-07T15:55:01;10.83;;;8.27;;
5171;SDS011;2605;49.770;9.868;2022-12-07T15:57:33;10.30;;;8.57;;
5171;SDS011;2605;49.770;9.868;2022-12-07T16:00:02;12.67;;;9.30;;
5171;SDS011;2605;49.770;9.868;2022-12-07T16:02:28;14.70;;;9.53;;
5171;SDS011;2605;49.770;9.868;2022-12-07T16:04:54;12.40;;;8.87;;
5171;SDS011;2605;49.770;9.868;2022-12-07T16:07:19;12.10;;;8.90;;
5171;SDS011;2605;49.770;9.868;2022-12-07T16:09:45;6.43;;;5.83;;
5171;SDS011;2605;49.770;9.868;2022-12-07T16:12:11;2.93;;;2.63;;
5171;SDS011;2605;49.770;9.868;2022-12-07T16:14:37;4.10;;;3.80;;
5171;SDS011;2605;49.770;9.868;2022-12-07T16:17:04;4.27;;;3.80;;
5171;SDS011;2605;49.770;9.868;2022-12-07T16:19:31;5.13;;;4.73;;
5171;SDS011;2605;49.770;9.868;2022-12-07T16:21:57;4.87;;;4.77;;
5171;SDS011;2605;49.770;9.868;2022-12-07T16:24:24;2.27;;;2.17;;
5171;SDS011;2605;49.770;9.868;2022-12-07T16:26:49;4.03;;;3.73;;
5171;SDS011;2605;49.770;9.868;2022-12-07T16:29:15;12.60;;;11.93;;
5171;SDS011;2605;49.770;9.868;2022-12-07T16:31:42;15.37;;;14.47;;
5171;SDS011;2605;49.770;9.868;2022-12-07T16:34:08;18.87;;;17.60;;
5171;SDS011;2605;49.770;9.868;2022-12-07T16:36:34;18.67;;;17.47;;
5171;SDS011;2605;49.770;9.868;2022-12-07T16:39:00;21.03;;;19.50;;
5171;SDS011;2605;49.770;9.868;2022-12-07T16:41:26;23.87;;;21.90;;
5171;SDS011;2605;49.770;9.868;2022-12-07T16:43:52;23.03;;;21.70;;
5171;SDS011;2605;49.770;9.868;2022-12-07T16:46:17;25.40;;;23.80;;
5171;SDS011;2605;49.770;9.868;2022-12-07T16:48:43;26.73;;;24.80;;
5171;SDS011;2605;49.770;9.868;2022-12-07T16:51:09;26.70;;;24.97;;
5171;SDS011;2605;49.770;9.868;2022-12-07T16:53:37;28.77;;;26.83;;
5171;SDS011;2605;49.770;9.868;2022-12-07T16:56:05;28.33;;;26.23;;
5171;SDS011;2605;49.770;9.868;2022-12-07T16:58:39;31.03;;;28.63;;
5171;SDS011;2605;49.770;9.868;2022-12-07T17:01:12;31.30;;;28.70;;
5171;SDS011;2605;49.770;9.868;2022-12-07T17:03:39;30.23;;;27.73;;
5171;SDS011;2605;49.770;9.868;2022-12-07T17:06:14;31.63;;;29.13;;
5171;SDS011;2605;49.770;9.868;2022-12-07T17:08:46;33.43;;;30.43;;
5171;SDS011;2605;49.770;9.868;2022-12-07T17:11:13;35.27;;;32.17;;
5171;SDS011;2605;49.770;9.868;2022-12-07T17:13:41;35.20;;;32.13;;